Time;durP1;ratioP1;P1;durP2;ratioP2;P2;SDS_P1;SDS_P2;PMS_P1;PMS_P2;Temp;Humidity;BMP_temperature;BMP_pressure;BME280_temperature;BME280_humidity;BME280_pressure;Samples;Min_cycle;Max_cycle;Signal;HPM_P1;HPM_P2
2022/05/08 00:00:14;;;;;;;19.52;3.90;;;10.30;99.90;;;;;;5053024;28;20076;-49
2022/05/08 00:02:40;;;;;;;18.83;3.80;;;10.20;99.90;;;;;;5053146;28;20103;-46
2022/05/08 00:05:12;;;;;;;21.15;3.67;;;10.10;99.90;;;;;;5051377;28;20051;-51
2022/05/08 00:07:37;;;;;;;19.70;3.13;;;10.10;99.90;;;;;;5052505;28;20045;-47
2022/05/08 00:10:04;;;;;;;18.75;3.70;;;10.10;99.90;;;;;;5053052;28;20036;-49
2022/05/08 00:12:31;;;;;;;22.52;3.60;;;10.00;99.90;;;;;;5052404;28;20084;-48
2022/05/08 00:14:56;;;;;;;17.42;3.47;;;10.10;99.90;;;;;;5052862;28;20049;-46
2022/05/08 00:17:22;;;;;;;21.02;3.60;;;10.00;99.90;;;;;;5052753;28;20400;-47
2022/05/08 00:19:47;;;;;;;21.48;3.70;;;9.90;99.90;;;;;;5052326;28;20039;-47
2022/05/08 00:22:14;;;;;;;21.90;4.00;;;10.00;99.90;;;;;;5052837;28;20041;-46
2022/05/08 00:24:40;;;;;;;21.30;3.60;;;9.80;99.90;;;;;;5052492;28;20045;-47
2022/05/08 00:27:07;;;;;;;20.00;3.53;;;9.80;99.90;;;;;;5052555;28;20468;-46
2022/05/08 00:29:33;;;;;;;16.38;3.60;;;9.70;99.90;;;;;;5052627;28;20029;-45
2022/05/08 00:31:59;;;;;;;22.17;4.18;;;9.80;99.90;;;;;;5052380;28;20048;-47
2022/05/08 00:34:25;;;;;;;20.88;3.92;;;9.60;99.90;;;;;;5051284;28;20419;-49
2022/05/08 00:36:51;;;;;;;24.20;3.67;;;9.60;99.90;;;;;;5050605;28;20510;-47
2022/05/08 00:39:18;;;;;;;23.65;4.22;;;9.50;99.90;;;;;;5052257;28;20082;-48
2022/05/08 00:41:45;;;;;;;23.08;4.40;;;9.40;99.90;;;;;;5052029;28;20040;-47
2022/05/08 00:44:11;;;;;;;19.70;3.95;;;9.40;99.90;;;;;;5052512;28;20064;-44
2022/05/08 00:46:37;;;;;;;17.63;3.95;;;9.40;99.90;;;;;;5050995;28;20037;-46
2022/05/08 00:49:03;;;;;;;21.35;4.43;;;9.30;99.90;;;;;;5052188;28;20392;-48
2022/05/08 00:51:29;;;;;;;22.08;4.60;;;9.20;99.90;;;;;;5052246;28;20036;-49
2022/05/08 00:53:57;;;;;;;21.38;4.15;;;9.20;99.90;;;;;;5051587;28;20087;-49
2022/05/08 00:56:23;;;;;;;25.17;5.22;;;9.20;99.90;;;;;;5052135;28;20447;-45
2022/05/08 00:58:50;;;;;;;24.60;4.35;;;9.10;99.90;;;;;;5050785;28;20544;-48
2022/05/08 01:01:16;;;;;;;17.60;3.90;;;9.00;99.90;;;;;;5051539;28;20544;-47
2022/05/08 01:03:43;;;;;;;21.98;4.07;;;9.00;99.90;;;;;;5051973;28;20092;-49
2022/05/08 01:06:11;;;;;;;24.05;4.40;;;9.00;99.90;;;;;;5049686;28;20048;-49
2022/05/08 01:08:39;;;;;;;29.52;4.32;;;8.90;99.90;;;;;;5051425;28;20037;-49
2022/05/08 01:11:06;;;;;;;21.27;4.28;;;8.90;99.90;;;;;;5051796;28;20032;-49
2022/05/08 01:13:32;;;;;;;21.88;4.03;;;8.90;99.90;;;;;;5051697;28;20059;-47
2022/05/08 01:15:57;;;;;;;18.67;4.07;;;8.80;99.90;;;;;;5051617;28;20033;-45
2022/05/08 01:18:23;;;;;;;23.98;4.10;;;8.80;99.90;;;;;;5051850;28;20120;-46
2022/05/08 01:20:50;;;;;;;23.80;4.57;;;8.70;99.90;;;;;;5066874;28;20040;-47
2022/05/08 01:23:16;;;;;;;19.20;4.15;;;8.80;99.90;;;;;;5049846;28;20508;-47
2022/05/08 01:25:53;;;;;;;22.92;4.43;;;8.70;99.90;;;;;;5051137;28;20124;-49
2022/05/08 01:28:21;;;;;;;22.77;4.72;;;8.70;99.90;;;;;;5051368;28;20041;-46
2022/05/08 01:30:48;;;;;;;19.48;4.57;;;8.60;99.90;;;;;;5051242;28;20036;-47
2022/05/08 01:33:14;;;;;;;20.95;4.45;;;8.70;99.90;;;;;;5016736;28;20040;-48
2022/05/08 01:35:42;;;;;;;22.40;5.22;;;8.40;99.90;;;;;;5049180;28;20266;-47
2022/05/08 01:38:09;;;;;;;21.42;4.40;;;8.50;99.90;;;;;;5051012;28;20036;-50
2022/05/08 01:40:35;;;;;;;29.33;4.47;;;8.60;99.90;;;;;;5051302;28;20603;-49
2022/05/08 01:43:01;;;;;;;25.00;4.82;;;8.50;99.90;;;;;;5051369;28;20045;-49
2022/05/08 01:45:27;;;;;;;21.35;4.30;;;8.40;99.90;;;;;;5050986;28;20045;-51
2022/05/08 01:50:37;;;;;;;;;;;8.30;99.90;;;;;;5051620;28;20428;-48
2022/05/08 01:53:03;;;;;;;19.20;4.60;;;8.30;99.90;;;;;;5050961;28;19921;-48
2022/05/08 01:55:29;;;;;;;23.65;4.93;;;8.30;99.90;;;;;;5050509;28;20053;-48
2022/05/08 01:57:55;;;;;;;25.95;4.57;;;8.20;99.90;;;;;;5050928;28;20110;-47
2022/05/08 02:00:22;;;;;;;23.92;4.88;;;8.30;99.90;;;;;;5050644;28;20040;-48
2022/05/08 02:02:48;;;;;;;22.20;5.20;;;8.10;99.90;;;;;;5050936;28;20094;-50
2022/05/08 02:05:20;;;;;;;20.58;4.38;;;8.20;99.90;;;;;;5051026;28;20171;-46
2022/05/08 02:07:47;;;;;;;20.90;5.25;;;8.10;99.90;;;;;;5047485;28;20055;-48
2022/05/08 02:10:14;;;;;;;30.70;5.50;;;8.10;99.90;;;;;;5050838;28;20040;-47
2022/05/08 02:12:41;;;;;;;28.27;6.10;;;8.10;99.90;;;;;;5050483;28;20052;-47
2022/05/08 02:15:09;;;;;;;21.20;4.97;;;8.00;99.90;;;;;;5050591;28;20032;-45
2022/05/08 02:17:35;;;;;;;27.35;5.88;;;8.00;99.90;;;;;;5050510;28;20047;-46
2022/05/08 02:20:01;;;;;;;35.58;6.20;;;7.90;99.90;;;;;;5050407;28;20091;-47
2022/05/08 02:22:27;;;;;;;21.10;5.20;;;7.90;99.90;;;;;;5050714;28;20039;-47
2022/05/08 02:24:53;;;;;;;24.13;5.38;;;7.90;99.90;;;;;;5050769;28;20036;-49
2022/05/08 02:27:19;;;;;;;34.22;6.00;;;8.00;99.90;;;;;;5050335;28;20041;-50
2022/05/08 02:29:48;;;;;;;28.55;6.07;;;8.00;99.90;;;;;;5050684;28;20036;-47
2022/05/08 02:32:14;;;;;;;22.58;5.55;;;7.90;99.90;;;;;;5050478;28;20033;-50
2022/05/08 02:34:40;;;;;;;22.80;5.63;;;7.90;99.90;;;;;;5050735;28;20044;-50
2022/05/08 02:37:06;;;;;;;22.65;5.57;;;7.80;99.90;;;;;;5048899;28;20033;-47
2022/05/08 02:39:32;;;;;;;20.73;4.80;;;7.70;99.90;;;;;;5050096;28;20025;-47
2022/05/08 02:41:57;;;;;;;22.23;5.40;;;7.70;99.90;;;;;;5050383;28;20076;-48
2022/05/08 02:44:23;;;;;;;26.13;5.53;;;7.70;99.90;;;;;;5050365;28;20052;-50
2022/05/08 02:46:49;;;;;;;21.85;5.32;;;7.60;99.90;;;;;;5050364;28;21241;-48
2022/05/08 02:49:14;;;;;;;17.85;5.05;;;7.70;99.90;;;;;;5050265;28;20041;-50
2022/05/08 02:51:40;;;;;;;23.52;5.43;;;7.60;99.90;;;;;;5048925;28;20086;-49
2022/05/08 02:54:06;;;;;;;21.05;5.93;;;7.60;99.90;;;;;;5049710;28;20057;-49
2022/05/08 02:59:16;;;;;;;18.05;5.03;;;7.60;99.90;;;;;;5050288;28;20107;-47
2022/05/08 03:01:41;;;;;;;20.42;5.32;;;7.60;99.90;;;;;;5050265;28;20480;-49
2022/05/08 03:04:07;;;;;;;23.38;5.20;;;7.70;99.90;;;;;;5050310;28;20496;-47
2022/05/08 03:06:33;;;;;;;23.80;5.63;;;7.60;99.90;;;;;;5049902;28;20500;-46
2022/05/08 03:08:59;;;;;;;19.05;5.60;;;7.50;99.90;;;;;;5049854;28;20037;-45
2022/05/08 03:11:28;;;;;;;17.05;5.50;;;7.50;99.90;;;;;;5050188;28;20032;-45
2022/05/08 03:13:55;;;;;;;20.10;4.80;;;7.50;99.90;;;;;;5050244;28;20040;-46
2022/05/08 03:16:24;;;;;;;20.00;5.10;;;7.40;99.90;;;;;;5050226;28;20384;-49
2022/05/08 03:18:51;;;;;;;22.27;6.38;;;7.40;99.90;;;;;;5049910;28;20174;-49
2022/05/08 03:21:17;;;;;;;18.83;4.85;;;7.40;99.90;;;;;;5051247;28;20048;-49
2022/05/08 03:23:44;;;;;;;19.70;5.20;;;7.40;99.90;;;;;;5053368;28;20037;-49
2022/05/08 03:26:10;;;;;;;23.65;5.38;;;7.30;99.90;;;;;;5053680;28;20045;-50
2022/05/08 03:28:40;;;;;;;16.55;4.93;;;7.20;99.90;;;;;;5053249;28;20033;-48
2022/05/08 03:31:06;;;;;;;22.20;5.30;;;7.20;99.90;;;;;;5051913;28;20102;-49
2022/05/08 03:33:34;;;;;;;22.90;5.38;;;7.20;99.90;;;;;;5053638;28;20033;-46
2022/05/08 03:36:00;;;;;;;24.33;5.57;;;7.20;99.90;;;;;;5052771;28;20065;-48
2022/05/08 03:38:27;;;;;;;27.63;5.53;;;7.10;99.90;;;;;;5045150;28;20550;-49
2022/05/08 03:40:53;;;;;;;21.95;5.65;;;7.10;99.90;;;;;;5051865;28;20045;-48
2022/05/08 03:43:19;;;;;;;19.15;5.25;;;7.00;99.90;;;;;;5053315;28;20040;-50
2022/05/08 03:45:48;;;;;;;19.50;5.47;;;7.00;99.90;;;;;;5052811;28;20037;-51
2022/05/08 03:48:18;;;;;;;20.98;5.15;;;7.00;99.90;;;;;;5053253;28;20443;-47
2022/05/08 03:50:44;;;;;;;19.20;5.20;;;6.90;99.90;;;;;;5053155;28;20370;-47
2022/05/08 03:53:10;;;;;;;21.58;4.80;;;6.90;99.90;;;;;;5052896;28;20048;-49
2022/05/08 03:55:38;;;;;;;21.88;5.05;;;6.80;99.90;;;;;;5052943;28;20136;-48
2022/05/08 03:58:04;;;;;;;19.10;5.05;;;6.80;99.90;;;;;;5052833;28;20048;-47
2022/05/08 04:00:30;;;;;;;16.77;5.15;;;6.80;99.90;;;;;;5053091;28;20057;-46
2022/05/08 04:02:56;;;;;;;15.57;5.20;;;6.70;99.90;;;;;;5053013;28;20091;-47
2022/05/08 04:05:22;;;;;;;23.30;5.63;;;6.70;99.90;;;;;;5053308;28;20047;-47
2022/05/08 04:07:48;;;;;;;20.73;5.43;;;6.70;99.90;;;;;;5067474;28;20577;-46
2022/05/08 04:10:14;;;;;;;23.17;5.35;;;6.70;99.90;;;;;;5052995;28;20033;-49
2022/05/08 04:12:42;;;;;;;15.75;5.15;;;6.60;99.90;;;;;;5052934;28;20037;-47
2022/05/08 04:17:52;;;;;;;;;;;6.60;99.90;;;;;;5053342;28;20592;-50
2022/05/08 04:20:18;;;;;;;16.65;4.78;;;6.70;99.90;;;;;;5052808;28;19917;-47
2022/05/08 04:25:28;;;;;;;24.02;5.53;;;6.60;99.90;;;;;;5050823;28;20052;-46
2022/05/08 04:27:54;;;;;;;19.52;5.32;;;6.60;99.90;;;;;;5052635;28;20040;-50
2022/05/08 04:30:19;;;;;;;27.10;5.38;;;6.60;99.90;;;;;;5050097;28;20406;-48
2022/05/08 04:32:45;;;;;;;16.08;5.03;;;6.60;99.90;;;;;;5051425;28;20544;-47
2022/05/08 04:35:11;;;;;;;22.50;6.13;;;6.60;99.90;;;;;;5052374;28;20428;-48
2022/05/08 04:37:36;;;;;;;24.33;5.78;;;6.70;99.90;;;;;;5051915;28;20095;-47
2022/05/08 04:40:03;;;;;;;23.73;5.40;;;6.70;99.90;;;;;;5052322;28;20049;-46
2022/05/08 04:42:28;;;;;;;21.70;5.20;;;6.70;99.90;;;;;;5051926;28;20048;-49
2022/05/08 04:44:55;;;;;;;17.15;5.32;;;6.80;99.90;;;;;;5052109;28;20033;-48
2022/05/08 04:47:21;;;;;;;20.23;5.28;;;6.80;99.90;;;;;;5051618;28;20048;-47
2022/05/08 04:49:46;;;;;;;23.05;5.80;;;6.90;99.90;;;;;;5051916;28;20072;-48
2022/05/08 04:52:12;;;;;;;18.33;5.88;;;6.90;99.90;;;;;;5052088;28;20036;-51
2022/05/08 04:54:38;;;;;;;33.22;6.63;;;7.00;99.90;;;;;;5051644;28;20049;-47
2022/05/08 04:57:03;;;;;;;27.73;6.25;;;7.00;99.90;;;;;;5051940;28;20523;-47
2022/05/08 04:59:29;;;;;;;21.02;5.32;;;7.00;99.90;;;;;;5051956;28;20041;-46
2022/05/08 05:01:55;;;;;;;26.50;5.63;;;7.10;99.90;;;;;;5051828;28;20078;-47
2022/05/08 05:04:21;;;;;;;22.23;5.45;;;7.10;99.90;;;;;;5051504;28;20056;-46
2022/05/08 05:06:47;;;;;;;27.30;5.80;;;7.10;99.90;;;;;;5049427;28;20033;-50
2022/05/08 05:09:12;;;;;;;21.50;5.80;;;7.10;99.90;;;;;;5051521;28;20052;-46
2022/05/08 05:11:39;;;;;;;20.25;5.15;;;7.10;99.90;;;;;;5051457;28;20040;-49
2022/05/08 05:14:05;;;;;;;20.02;4.88;;;7.20;99.90;;;;;;5051495;28;20048;-47
2022/05/08 05:16:30;;;;;;;19.02;5.35;;;7.20;99.90;;;;;;5051376;28;20400;-47
2022/05/08 05:18:56;;;;;;;19.98;5.72;;;7.10;99.90;;;;;;5051588;28;20110;-46
2022/05/08 05:21:22;;;;;;;21.40;5.25;;;7.20;99.90;;;;;;5051514;28;20075;-50
2022/05/08 05:23:48;;;;;;;22.02;4.75;;;7.30;99.90;;;;;;5051644;28;20072;-48
2022/05/08 05:26:13;;;;;;;16.83;4.90;;;7.30;99.90;;;;;;5051525;28;20132;-46
2022/05/08 05:28:39;;;;;;;19.88;4.93;;;7.40;99.90;;;;;;5051201;28;20041;-49
2022/05/08 05:31:05;;;;;;;23.63;5.18;;;7.40;99.90;;;;;;5051517;28;20067;-49
2022/05/08 05:33:30;;;;;;;22.70;5.45;;;7.50;99.90;;;;;;5051420;28;20028;-47
2022/05/08 05:35:56;;;;;;;14.27;4.70;;;7.50;99.90;;;;;;5046491;28;20548;-48
2022/05/08 05:38:22;;;;;;;17.23;4.97;;;7.60;99.90;;;;;;5051116;28;20051;-47
2022/05/08 05:40:47;;;;;;;20.65;4.82;;;7.70;99.90;;;;;;5050788;28;20037;-46
2022/05/08 05:43:13;;;;;;;18.00;4.63;;;7.70;99.90;;;;;;5050695;28;20392;-47
2022/05/08 05:45:39;;;;;;;19.38;4.85;;;7.70;99.90;;;;;;5042795;28;20083;-49
2022/05/08 05:48:05;;;;;;;18.52;4.90;;;7.80;99.90;;;;;;5030948;28;20073;-51
2022/05/08 05:50:31;;;;;;;16.65;5.00;;;7.90;99.90;;;;;;5031131;28;20068;-49
2022/05/08 05:52:57;;;;;;;25.00;4.70;;;8.00;99.90;;;;;;5044994;28;20101;-50
2022/05/08 05:55:22;;;;;;;17.17;4.18;;;8.00;99.90;;;;;;5050406;28;20416;-46
2022/05/08 05:57:48;;;;;;;18.02;4.68;;;8.10;99.90;;;;;;5051036;28;20096;-46
2022/05/08 06:00:16;;;;;;;17.23;4.50;;;8.20;99.90;;;;;;5050550;28;20069;-48
2022/05/08 06:02:44;;;;;;;18.17;4.95;;;8.30;99.90;;;;;;5050976;28;20040;-46
2022/05/08 06:05:11;;;;;;;11.55;4.00;;;8.40;99.90;;;;;;5050867;28;20048;-46
2022/05/08 06:07:38;;;;;;;14.05;3.08;;;8.50;99.90;;;;;;5050227;28;20029;-49
2022/05/08 06:10:09;;;;;;;18.85;3.72;;;8.60;99.90;;;;;;5030722;28;20033;-46
2022/05/08 06:12:35;;;;;;;14.48;3.53;;;8.60;99.90;;;;;;5030714;28;20045;-47
2022/05/08 06:15:01;;;;;;;14.10;2.80;;;8.70;99.90;;;;;;5029345;28;20052;-47
2022/05/08 06:17:27;;;;;;;11.45;2.88;;;8.80;99.90;;;;;;5030310;28;20037;-46
2022/05/08 06:19:53;;;;;;;11.23;2.67;;;8.90;99.90;;;;;;5030657;28;20049;-48
2022/05/08 06:22:19;;;;;;;12.57;3.15;;;9.00;99.90;;;;;;5048380;28;20076;-49
2022/05/08 06:24:45;;;;;;;15.88;3.08;;;9.00;99.90;;;;;;5050523;28;20464;-49
2022/05/08 06:27:10;;;;;;;10.27;2.90;;;9.10;99.90;;;;;;5050366;28;20037;-46
2022/05/08 06:29:36;;;;;;;11.02;2.58;;;9.10;99.90;;;;;;5050354;28;20119;-46
2022/05/08 06:32:02;;;;;;;10.45;2.45;;;9.20;99.90;;;;;;5038289;28;20041;-46
2022/05/08 06:34:28;;;;;;;10.88;2.75;;;9.30;99.90;;;;;;5030837;28;20042;-48
2022/05/08 06:36:54;;;;;;;9.88;2.88;;;9.30;99.90;;;;;;5036090;28;20041;-50
2022/05/08 06:39:20;;;;;;;15.57;3.00;;;9.30;99.90;;;;;;5050307;28;20045;-51
2022/05/08 06:41:47;;;;;;;10.80;2.67;;;9.40;99.90;;;;;;5049170;28;20037;-49
2022/05/08 06:44:13;;;;;;;12.27;2.63;;;9.40;99.90;;;;;;5049932;28;20033;-46
2022/05/08 06:46:39;;;;;;;12.00;2.20;;;9.50;99.90;;;;;;5050129;28;20481;-48
2022/05/08 06:49:05;;;;;;;12.27;2.53;;;9.50;99.90;;;;;;5049221;28;20064;-48
2022/05/08 06:51:32;;;;;;;12.90;2.55;;;9.50;99.90;;;;;;5050469;28;20423;-47
2022/05/08 06:53:57;;;;;;;7.55;2.22;;;9.60;99.90;;;;;;5050040;28;20056;-49
2022/05/08 06:56:25;;;;;;;12.75;2.30;;;9.60;99.90;;;;;;5051490;28;20093;-48
2022/05/08 07:01:38;;;;;;;;;;;9.80;99.90;;;;;;5054806;28;20124;-48
2022/05/08 07:04:05;;;;;;;8.18;2.17;;;9.90;99.90;;;;;;5054095;28;20021;-46
2022/05/08 07:06:31;;;;;;;12.32;2.50;;;9.90;99.90;;;;;;5053483;28;20078;-47
2022/05/08 07:08:58;;;;;;;8.90;2.67;;;10.00;99.90;;;;;;5054029;28;20049;-47
2022/05/08 07:11:24;;;;;;;12.73;2.83;;;10.10;99.90;;;;;;5054194;28;20040;-46
2022/05/08 07:13:50;;;;;;;13.05;2.40;;;10.20;99.90;;;;;;5051386;28;20037;-47
2022/05/08 07:16:17;;;;;;;15.32;2.47;;;10.30;99.90;;;;;;5039896;28;20033;-50
2022/05/08 07:18:43;;;;;;;11.68;2.33;;;10.40;99.90;;;;;;5036063;28;20037;-48
2022/05/08 07:21:08;;;;;;;8.48;2.67;;;10.60;99.90;;;;;;5035157;28;20041;-46
2022/05/08 07:23:34;;;;;;;11.25;2.45;;;10.70;99.90;;;;;;5034755;28;20041;-47
2022/05/08 07:26:00;;;;;;;10.90;2.10;;;10.70;99.90;;;;;;5031131;28;20583;-47
2022/05/08 07:28:27;;;;;;;11.77;2.30;;;10.50;99.90;;;;;;5025202;28;20049;-48
2022/05/08 07:30:53;;;;;;;9.68;2.35;;;10.60;99.90;;;;;;5033184;28;20132;-49
2022/05/08 07:33:19;;;;;;;11.05;2.45;;;10.60;99.90;;;;;;5032189;28;20180;-46
2022/05/08 07:38:31;;;;;;;10.60;2.28;;;10.80;99.90;;;;;;5031362;28;20045;-48
2022/05/08 07:40:57;;;;;;;8.82;1.80;;;10.90;99.90;;;;;;5032899;28;20041;-48
2022/05/08 07:43:23;;;;;;;10.23;2.15;;;11.00;99.90;;;;;;5028790;28;20113;-48
2022/05/08 07:45:49;;;;;;;5.95;1.60;;;10.90;99.90;;;;;;5030809;28;20033;-50
2022/05/08 07:48:18;;;;;;;9.82;2.22;;;10.90;99.90;;;;;;5035980;28;20041;-49
2022/05/08 07:50:45;;;;;;;8.45;1.70;;;10.70;99.90;;;;;;5031718;28;20060;-49
2022/05/08 07:53:12;;;;;;;9.07;1.90;;;10.80;99.90;;;;;;5030919;28;20034;-49
2022/05/08 07:55:39;;;;;;;10.32;2.05;;;10.90;99.90;;;;;;5035311;28;20053;-48
2022/05/08 07:58:05;;;;;;;8.80;2.05;;;11.20;99.90;;;;;;5037890;28;20045;-48
2022/05/08 08:00:31;;;;;;;10.57;2.13;;;11.30;99.90;;;;;;5033322;28;20556;-49
2022/05/08 08:02:56;;;;;;;8.10;2.20;;;11.30;99.90;;;;;;5032939;28;20188;-47
2022/05/08 08:05:22;;;;;;;8.40;1.77;;;11.30;99.90;;;;;;5037784;28;20036;-50
2022/05/08 08:07:49;;;;;;;8.55;1.70;;;11.50;99.90;;;;;;5027948;28;20035;-47
2022/05/08 08:10:15;;;;;;;6.05;1.92;;;11.50;99.90;;;;;;5031335;28;20120;-48
2022/05/08 08:12:40;;;;;;;11.07;2.25;;;11.40;99.90;;;;;;5034518;28;20119;-48
2022/05/08 08:15:06;;;;;;;12.23;2.10;;;11.40;99.90;;;;;;5031218;28;20025;-50
2022/05/08 08:17:32;;;;;;;9.07;1.98;;;11.20;99.90;;;;;;5028785;28;20041;-49
2022/05/08 08:19:58;;;;;;;15.00;2.22;;;11.20;99.90;;;;;;5044865;28;20087;-47
2022/05/08 08:22:24;;;;;;;12.35;2.30;;;11.20;99.90;;;;;;5032132;28;20072;-46
2022/05/08 08:24:50;;;;;;;11.50;2.03;;;11.10;99.90;;;;;;5028801;28;20041;-48
2022/05/08 08:27:21;;;;;;;9.88;2.20;;;11.20;99.90;;;;;;5029240;28;20091;-46
2022/05/08 08:29:47;;;;;;;12.40;2.03;;;11.10;99.90;;;;;;5031086;28;20156;-47
2022/05/08 08:32:14;;;;;;;12.57;2.15;;;11.20;99.90;;;;;;5028539;28;20033;-51
2022/05/08 08:34:39;;;;;;;9.10;2.40;;;11.30;99.90;;;;;;5034133;28;20099;-46
2022/05/08 08:37:05;;;;;;;8.93;1.80;;;11.40;99.90;;;;;;5033558;28;20397;-49
2022/05/08 08:39:31;;;;;;;7.03;2.00;;;11.40;99.90;;;;;;5028801;28;20041;-46
2022/05/08 08:42:27;;;;;;;11.65;2.10;;;11.50;99.90;;;;;;5031891;28;20052;-48
2022/05/08 08:47:50;;;;;;;9.32;1.70;;;11.60;99.90;;;;;;5032444;28;20041;-50
2022/05/08 08:50:17;;;;;;;10.68;2.22;;;11.60;99.90;;;;;;5028183;28;20033;-48
2022/05/08 08:52:44;;;;;;;6.00;1.77;;;11.90;99.90;;;;;;5031149;28;20033;-49
2022/05/08 08:55:09;;;;;;;12.23;2.15;;;11.90;99.90;;;;;;5030084;28;20048;-51
2022/05/08 08:57:35;;;;;;;8.95;1.85;;;11.90;99.90;;;;;;5034540;28;20041;-49
2022/05/08 09:00:03;;;;;;;12.30;1.85;;;12.20;99.90;;;;;;5028809;28;20037;-50
2022/05/08 09:02:29;;;;;;;12.88;2.60;;;12.50;99.90;;;;;;5031983;28;20033;-46
2022/05/08 09:04:54;;;;;;;10.32;1.92;;;12.50;99.90;;;;;;5030871;28;20094;-50
2022/05/08 09:07:43;;;;;;;11.00;2.30;;;12.60;99.90;;;;;;5033626;28;20167;-46
2022/05/08 09:10:18;;;;;;;10.65;2.10;;;12.70;99.90;;;;;;5032389;28;20069;-51
2022/05/08 09:13:05;;;;;;;10.98;1.77;;;12.80;99.90;;;;;;5034499;28;20048;-46
2022/05/08 09:15:37;;;;;;;8.38;2.00;;;13.30;99.90;;;;;;5033228;28;20029;-50
2022/05/08 09:18:06;;;;;;;9.18;1.80;;;13.40;99.90;;;;;;5029675;28;20037;-48
2022/05/08 09:20:36;;;;;;;8.65;1.70;;;13.70;99.90;;;;;;5032425;28;20056;-47
2022/05/08 09:23:16;;;;;;;5.00;1.70;;;13.80;99.90;;;;;;5033586;28;20408;-47
2022/05/08 09:25:44;;;;;;;7.53;1.75;;;13.40;99.90;;;;;;5030496;28;20045;-48
2022/05/08 09:28:11;;;;;;;6.43;1.70;;;13.70;99.90;;;;;;5032991;28;20045;-49
2022/05/08 09:30:53;;;;;;;8.45;1.95;;;13.80;99.90;;;;;;5032825;28;20034;-48
2022/05/08 09:33:26;;;;;;;8.77;1.90;;;13.90;99.90;;;;;;5032188;28;20099;-48
2022/05/08 09:35:52;;;;;;;8.68;1.73;;;13.90;99.90;;;;;;5028521;28;20655;-50
2022/05/08 09:38:18;;;;;;;7.80;1.95;;;13.80;99.90;;;;;;5033138;28;20026;-49
2022/05/08 09:40:45;;;;;;;8.13;1.77;;;13.80;99.90;;;;;;5029511;28;20048;-49
2022/05/08 09:43:28;;;;;;;8.00;1.85;;;13.90;99.90;;;;;;5027914;28;20106;-45
2022/05/08 09:45:58;;;;;;;10.00;1.85;;;14.20;99.90;;;;;;5029308;28;20098;-48
2022/05/08 09:48:26;;;;;;;8.48;1.80;;;14.40;99.90;;;;;;5032788;28;20038;-47
2022/05/08 09:50:59;;;;;;;8.55;1.60;;;14.30;99.90;;;;;;5030155;28;20031;-47
2022/05/08 09:53:26;;;;;;;8.40;1.92;;;14.10;99.90;;;;;;5028160;28;20083;-45
2022/05/08 09:55:53;;;;;;;9.73;1.90;;;14.10;99.90;;;;;;5028581;28;20057;-50
2022/05/08 09:58:20;;;;;;;7.53;1.80;;;14.30;99.90;;;;;;5030794;28;20044;-48
2022/05/08 10:00:47;;;;;;;8.60;1.90;;;14.30;99.90;;;;;;5030951;28;20190;-51
2022/05/08 10:03:14;;;;;;;8.38;1.63;;;14.50;99.90;;;;;;5032527;28;20045;-48
2022/05/08 10:05:44;;;;;;;9.88;2.05;;;14.80;99.90;;;;;;5029266;28;20033;-47
2022/05/08 10:08:13;;;;;;;7.50;1.67;;;14.80;99.90;;;;;;5024367;28;20489;-47
2022/05/08 10:13:59;;;;;;;9.07;1.88;;;15.00;99.90;;;;;;5025432;28;20049;-47
2022/05/08 10:16:48;;;;;;;8.15;2.00;;;14.80;99.90;;;;;;5032935;28;20122;-49
2022/05/08 10:19:21;;;;;;;10.93;1.90;;;14.80;99.80;;;;;;5030143;28;20037;-47
2022/05/08 10:22:02;;;;;;;8.43;1.70;;;14.80;99.90;;;;;;5028857;28;20099;-45
2022/05/08 10:24:43;;;;;;;9.10;1.65;;;15.00;99.90;;;;;;5043266;28;20046;-50
2022/05/08 10:27:23;;;;;;;10.05;2.13;;;15.10;99.90;;;;;;5027225;28;20034;-47
2022/05/08 10:29:52;;;;;;;8.30;1.88;;;15.10;99.90;;;;;;5027142;28;20064;-49
2022/05/08 10:32:32;;;;;;;9.77;1.80;;;15.40;99.90;;;;;;5035750;28;20115;-49
2022/05/08 10:35:11;;;;;;;11.20;2.10;;;15.10;99.90;;;;;;5036414;28;20468;-48
2022/05/08 10:37:41;;;;;;;6.75;1.58;;;15.30;99.40;;;;;;5033364;28;20107;-48
2022/05/08 10:40:22;;;;;;;9.93;1.90;;;15.30;99.90;;;;;;5035880;28;20037;-49
2022/05/08 10:42:55;;;;;;;7.40;1.83;;;15.20;99.90;;;;;;5032868;28;20064;-49
2022/05/08 10:45:37;;;;;;;7.15;1.80;;;15.40;99.90;;;;;;5035080;28;20041;-47
2022/05/08 10:48:25;;;;;;;6.85;1.77;;;15.60;99.90;;;;;;5033337;28;20072;-47
2022/05/08 10:50:53;;;;;;;7.90;1.70;;;15.90;99.90;;;;;;5034887;28;20401;-51
2022/05/08 10:53:32;;;;;;;7.65;1.50;;;16.00;99.90;;;;;;5033388;28;20033;-48
2022/05/08 10:56:06;;;;;;;5.55;1.60;;;16.00;98.70;;;;;;5032887;28;20041;-48
2022/05/08 10:58:32;;;;;;;;;;;16.50;99.80;;;;;;5035621;28;20033;-48
2022/05/08 11:01:02;;;;;;;5.07;1.60;;;16.40;98.70;;;;;;5035203;28;19920;-49
2022/05/08 11:03:29;;;;;;;8.35;1.52;;;16.60;97.90;;;;;;5031722;28;20037;-49
2022/05/08 11:05:55;;;;;;;6.18;1.52;;;16.70;97.40;;;;;;5030526;28;20049;-47
2022/05/08 11:08:29;;;;;;;9.27;1.75;;;16.70;97.80;;;;;;5034002;28;20565;-47
2022/05/08 11:11:07;;;;;;;13.13;1.70;;;16.80;96.10;;;;;;5034936;28;20041;-47
2022/05/08 11:13:37;;;;;;;6.00;1.25;;;16.70;96.40;;;;;;5032990;28;20064;-48
2022/05/08 11:16:03;;;;;;;7.57;1.83;;;16.60;97.00;;;;;;5030596;28;20333;-48
2022/05/08 11:18:29;;;;;;;6.88;1.63;;;16.90;97.60;;;;;;5029356;28;20094;-49
2022/05/08 11:20:57;;;;;;;6.78;1.50;;;16.90;96.20;;;;;;5033028;28;20324;-48
2022/05/08 11:23:26;;;;;;;11.35;1.55;;;17.10;95.40;;;;;;5031650;28;20130;-48
2022/05/08 11:25:57;;;;;;;9.77;1.55;;;17.50;96.50;;;;;;5036227;28;20037;-51
2022/05/08 11:28:24;;;;;;;8.60;1.70;;;17.50;94.50;;;;;;5032005;28;20478;-49
2022/05/08 11:30:51;;;;;;;5.47;1.65;;;17.90;95.80;;;;;;5033141;28;20032;-50
2022/05/08 11:36:04;;;;;;;8.55;1.35;;;17.70;94.50;;;;;;5033934;28;20095;-47
2022/05/08 11:38:45;;;;;;;8.00;1.42;;;17.50;92.70;;;;;;5033099;28;20114;-48
2022/05/08 11:41:18;;;;;;;9.43;1.70;;;17.90;93.90;;;;;;5035468;28;20523;-52
2022/05/08 11:43:51;;;;;;;9.20;1.60;;;17.70;92.80;;;;;;5050706;28;20759;-49
2022/05/08 11:46:19;;;;;;;6.82;1.40;;;17.90;91.40;;;;;;5033154;28;20091;-50
2022/05/08 11:48:49;;;;;;;7.43;1.60;;;18.10;92.30;;;;;;5037102;28;20037;-49
2022/05/08 11:51:19;;;;;;;8.55;1.88;;;18.20;94.00;;;;;;5034547;28;20037;-49
2022/05/08 11:53:50;;;;;;;8.85;1.60;;;18.20;91.40;;;;;;5030825;28;20708;-48
2022/05/08 11:56:29;;;;;;;7.38;2.03;;;18.60;92.60;;;;;;5033933;28;20136;-48
2022/05/08 11:59:00;;;;;;;10.52;1.70;;;18.70;91.50;;;;;;5030616;28;20121;-50
2022/05/08 12:01:33;;;;;;;7.03;1.60;;;18.30;89.10;;;;;;5033102;28;20404;-50
2022/05/08 12:04:32;;;;;;;10.27;1.67;;;18.30;90.20;;;;;;5032175;28;20072;-48
2022/05/08 12:07:12;;;;;;;9.07;1.50;;;18.60;91.10;;;;;;5031100;28;20904;-51
2022/05/08 12:09:39;;;;;;;8.95;1.45;;;18.50;87.70;;;;;;5029675;28;20034;-51
2022/05/08 12:12:33;;;;;;;8.93;1.52;;;18.70;90.10;;;;;;5033149;28;20477;-49
2022/05/08 12:15:17;;;;;;;7.55;1.52;;;19.20;88.10;;;;;;5030228;28;20029;-49
2022/05/08 12:17:43;;;;;;;8.57;1.60;;;19.40;89.20;;;;;;5030672;28;20038;-48
2022/05/08 12:20:17;;;;;;;8.32;2.00;;;19.60;87.50;;;;;;5033678;28;20045;-47
2022/05/08 12:22:44;;;;;;;6.93;1.92;;;19.00;83.80;;;;;;5031778;28;20028;-49
2022/05/08 12:25:11;;;;;;;8.75;1.80;;;18.90;84.60;;;;;;5028821;28;20033;-48
2022/05/08 12:27:37;;;;;;;10.02;1.73;;;19.60;86.60;;;;;;5047677;28;20504;-47
2022/05/08 12:30:08;;;;;;;9.63;1.63;;;19.50;83.10;;;;;;5031113;28;20075;-50
2022/05/08 12:32:39;;;;;;;6.85;1.58;;;19.80;86.90;;;;;;5027716;28;20036;-50
2022/05/08 12:35:05;;;;;;;6.35;1.55;;;20.10;84.60;;;;;;5029692;28;20038;-51
2022/05/08 12:37:31;;;;;;;7.28;1.70;;;20.10;83.70;;;;;;5047216;28;20030;-49
2022/05/08 12:39:57;;;;;;;6.85;1.40;;;20.00;80.00;;;;;;5030371;28;20040;-48
2022/05/08 12:42:22;;;;;;;8.05;1.80;;;20.20;81.20;;;;;;5032719;28;20516;-49
2022/05/08 12:44:48;;;;;;;6.38;1.40;;;20.40;79.20;;;;;;5030162;28;20109;-46
2022/05/08 12:47:14;;;;;;;7.50;1.60;;;20.60;79.50;;;;;;5030363;28;20041;-48
2022/05/08 12:49:42;;;;;;;8.57;1.63;;;20.70;78.80;;;;;;5031525;28;20037;-47
2022/05/08 12:52:09;;;;;;;13.65;1.88;;;20.60;78.20;;;;;;5049519;28;20040;-49
2022/05/08 12:54:35;;;;;;;7.15;1.60;;;20.70;73.00;;;;;;5051003;28;20098;-49
2022/05/08 12:57:04;;;;;;;8.15;1.58;;;20.10;73.10;;;;;;5047986;28;20051;-46
2022/05/08 12:59:49;;;;;;;8.32;1.50;;;19.70;71.20;;;;;;5033759;28;20124;-46
2022/05/08 13:02:19;;;;;;;6.60;1.55;;;20.20;72.90;;;;;;5036427;28;20034;-46
2022/05/08 13:04:46;;;;;;;8.88;2.00;;;20.50;72.10;;;;;;5032899;28;20037;-47
2022/05/08 13:07:12;;;;;;;6.85;1.73;;;20.30;70.90;;;;;;5031879;28;20036;-47
2022/05/08 13:09:39;;;;;;;9.85;1.60;;;20.60;72.90;;;;;;5033617;28;20033;-50
2022/05/08 13:12:06;;;;;;;9.60;1.98;;;20.80;72.70;;;;;;5038058;28;20043;-47
2022/05/08 13:14:32;;;;;;;11.25;2.10;;;20.90;69.00;;;;;;5041621;28;20029;-47